Time;durP1;ratioP1;P1;durP2;ratioP2;P2;SDS_P1;SDS_P2;PMS_P1;PMS_P2;Temp;Humidity;BMP_temperature;BMP_pressure;BME280_temperature;BME280_humidity;BME280_pressure;Samples;Min_cycle;Max_cycle;Signal;HPM_P1;HPM_P2
2023/12/29 00:00:44;;;;;;;4.70;1.70;;;8.90;99.90;;;;;;5094024;28;20482;-65
2023/12/29 00:03:11;;;;;;;1.30;1.17;;;8.90;99.90;;;;;;5093925;28;20452;-65
2023/12/29 00:05:38;;;;;;;2.60;1.80;;;8.90;99.90;;;;;;5082120;28;21008;-65
2023/12/29 00:08:05;;;;;;;3.63;1.27;;;8.90;99.90;;;;;;5080606;28;20517;-65
2023/12/29 00:10:32;;;;;;;1.67;1.50;;;8.90;99.90;;;;;;5079633;28;20466;-66
2023/12/29 00:13:01;;;;;;;3.03;2.23;;;9.00;99.90;;;;;;5077089;28;20441;-65
2023/12/29 00:15:28;;;;;;;2.13;1.87;;;9.00;99.90;;;;;;5076473;28;20472;-64
2023/12/29 00:17:56;;;;;;;3.87;1.80;;;9.00;99.90;;;;;;5076187;28;20431;-64
2023/12/29 00:20:23;;;;;;;2.27;1.80;;;9.10;99.90;;;;;;5076051;28;20544;-64
2023/12/29 00:22:50;;;;;;;3.93;2.00;;;9.00;99.90;;;;;;5075940;28;20491;-64
2023/12/29 00:25:17;;;;;;;3.50;1.50;;;9.00;99.90;;;;;;5076056;28;20505;-64
2023/12/29 00:27:44;;;;;;;3.60;1.90;;;9.00;99.90;;;;;;5075839;28;20515;-64
2023/12/29 00:30:12;;;;;;;2.93;1.63;;;9.00;99.90;;;;;;5075864;28;20525;-62
2023/12/29 00:32:38;;;;;;;3.60;1.90;;;9.00;99.90;;;;;;5076034;28;20729;-66
2023/12/29 00:35:07;;;;;;;12.13;1.73;;;9.00;99.90;;;;;;5075946;28;20477;-63
2023/12/29 00:37:34;;;;;;;2.17;1.70;;;9.00;99.90;;;;;;5075921;28;20494;-64
2023/12/29 00:40:02;;;;;;;7.60;1.50;;;9.00;99.90;;;;;;5075863;28;20562;-66
2023/12/29 00:42:29;;;;;;;4.80;1.70;;;9.00;99.90;;;;;;5075753;28;20469;-65
2023/12/29 00:44:56;;;;;;;4.70;1.40;;;9.00;99.90;;;;;;5075824;28;20533;-63
2023/12/29 00:47:23;;;;;;;4.70;1.37;;;9.00;99.90;;;;;;5075689;28;20476;-65
2023/12/29 00:49:50;;;;;;;3.63;2.33;;;9.00;99.90;;;;;;5075737;28;20527;-64
2023/12/29 00:52:19;;;;;;;5.23;2.23;;;9.00;99.90;;;;;;5075535;28;20557;-64
2023/12/29 00:54:46;;;;;;;4.40;1.83;;;9.00;99.90;;;;;;5075338;28;20913;-65
2023/12/29 00:57:12;;;;;;;2.10;1.50;;;9.00;99.90;;;;;;5075451;28;20500;-63
2023/12/29 00:59:39;;;;;;;10.70;4.27;;;9.00;99.90;;;;;;5075417;28;20572;-64
2023/12/29 01:02:06;;;;;;;13.13;3.40;;;9.00;99.90;;;;;;5075402;28;20477;-63
2023/12/29 01:04:34;;;;;;;5.90;2.00;;;9.00;99.90;;;;;;5075385;28;20483;-64
2023/12/29 01:07:01;;;;;;;3.27;1.70;;;9.00;99.90;;;;;;5075009;28;20571;-65
2023/12/29 01:09:29;;;;;;;2.87;2.20;;;9.00;99.90;;;;;;5075303;28;20484;-64
2023/12/29 01:11:56;;;;;;;6.73;3.43;;;9.00;99.90;;;;;;5074982;28;20458;-64
2023/12/29 01:14:23;;;;;;;5.47;2.47;;;9.00;99.90;;;;;;5075209;28;20495;-64
2023/12/29 01:16:50;;;;;;;3.40;1.47;;;8.90;99.90;;;;;;5075010;28;20575;-64
2023/12/29 01:19:17;;;;;;;4.57;1.70;;;8.90;99.90;;;;;;5074897;28;20488;-65
2023/12/29 01:21:43;;;;;;;1.77;1.53;;;8.90;99.90;;;;;;5075078;28;20481;-63
2023/12/29 01:24:10;;;;;;;3.07;1.67;;;9.00;99.90;;;;;;5075169;28;20457;-64
2023/12/29 01:26:39;;;;;;;1.70;1.30;;;9.00;99.90;;;;;;5074879;28;20503;-64
2023/12/29 01:29:06;;;;;;;2.37;1.40;;;9.00;99.90;;;;;;5074943;28;20473;-64
2023/12/29 01:31:33;;;;;;;1.73;1.60;;;9.00;99.90;;;;;;5074732;28;20528;-64
2023/12/29 01:34:00;;;;;;;2.07;1.40;;;9.00;99.90;;;;;;5074701;28;20552;-63
2023/12/29 01:36:27;;;;;;;4.77;2.23;;;9.00;99.90;;;;;;5074941;28;20445;-64
2023/12/29 01:38:54;;;;;;;1.50;1.30;;;9.00;99.90;;;;;;5075086;28;20853;-65
2023/12/29 01:41:21;;;;;;;3.37;1.70;;;9.10;99.90;;;;;;5073975;28;20484;-64
2023/12/29 01:44:21;;;;;;;2.80;1.90;;;9.10;99.90;;;;;;5074715;28;20549;-65
2023/12/29 01:46:51;;;;;;;1.93;1.50;;;9.10;99.90;;;;;;5074644;28;20922;-63
2023/12/29 01:49:19;;;;;;;1.93;1.60;;;9.10;99.90;;;;;;5074847;28;20428;-65
2023/12/29 01:51:50;;;;;;;2.27;1.57;;;9.00;99.90;;;;;;5074554;28;20451;-65
2023/12/29 01:54:18;;;;;;;2.70;1.40;;;9.10;99.90;;;;;;5074792;28;20516;-65
2023/12/29 01:56:46;;;;;;;1.30;1.20;;;9.10;99.90;;;;;;5074727;28;20544;-64
2023/12/29 01:59:13;;;;;;;2.80;1.50;;;9.10;99.90;;;;;;5074800;28;20468;-64
2023/12/29 02:01:42;;;;;;;2.70;1.50;;;9.10;99.90;;;;;;5074694;28;20484;-65
2023/12/29 02:04:09;;;;;;;5.00;1.90;;;9.10;99.90;;;;;;5074505;28;20862;-65
2023/12/29 02:06:36;;;;;;;6.60;2.10;;;9.10;99.90;;;;;;5074357;28;20452;-64
2023/12/29 02:09:04;;;;;;;1.43;1.27;;;9.10;99.90;;;;;;5076410;28;20449;-64
2023/12/29 02:11:32;;;;;;;2.57;1.30;;;9.10;99.90;;;;;;5078497;28;20918;-65
2023/12/29 02:13:59;;;;;;;3.60;1.67;;;9.10;99.90;;;;;;5078608;28;20989;-65
2023/12/29 02:16:36;;;;;;;2.13;1.40;;;9.10;99.90;;;;;;5078221;28;20473;-64
2023/12/29 02:19:13;;;;;;;3.13;1.30;;;9.10;99.90;;;;;;5076460;28;20497;-65
2023/12/29 02:21:43;;;;;;;2.10;1.67;;;9.10;99.90;;;;;;5074553;28;20518;-64
2023/12/29 02:24:10;;;;;;;6.37;1.87;;;9.10;99.90;;;;;;5074591;28;20473;-64
2023/12/29 02:26:38;;;;;;;5.00;1.73;;;9.10;99.90;;;;;;5074459;28;20484;-65
2023/12/29 02:29:09;;;;;;;1.50;1.03;;;9.10;99.90;;;;;;5074450;28;20533;-64
2023/12/29 02:31:40;;;;;;;6.13;1.70;;;9.10;99.90;;;;;;5074414;28;20434;-64
2023/12/29 02:34:10;;;;;;;2.17;1.53;;;9.10;99.90;;;;;;5074162;28;20504;-64
2023/12/29 02:36:42;;;;;;;1.80;1.43;;;9.10;99.90;;;;;;5074200;28;20511;-64
2023/12/29 02:39:10;;;;;;;3.00;1.30;;;9.10;99.90;;;;;;5074200;28;20462;-64
2023/12/29 02:41:38;;;;;;;2.90;1.40;;;9.10;99.90;;;;;;5074427;28;20818;-63
2023/12/29 02:44:05;;;;;;;2.03;1.70;;;9.10;99.90;;;;;;5074314;28;20556;-63
2023/12/29 02:46:32;;;;;;;3.70;1.87;;;9.20;99.90;;;;;;5074293;28;20535;-64
2023/12/29 02:48:59;;;;;;;1.80;1.43;;;9.10;99.90;;;;;;5074357;28;20546;-65
2023/12/29 02:51:26;;;;;;;5.50;1.40;;;9.10;99.90;;;;;;5074664;28;20544;-65
2023/12/29 02:53:54;;;;;;;2.43;1.70;;;9.10;99.90;;;;;;5077818;28;20487;-64
2023/12/29 02:56:21;;;;;;;2.27;1.50;;;9.10;99.90;;;;;;5078046;28;20445;-63
2023/12/29 02:58:51;;;;;;;1.30;1.20;;;9.10;99.90;;;;;;5077736;28;20523;-64
2023/12/29 03:01:18;;;;;;;2.03;1.43;;;9.10;99.90;;;;;;5077697;28;20485;-65
2023/12/29 03:03:45;;;;;;;1.57;1.33;;;9.20;99.90;;;;;;5077866;28;20984;-64
2023/12/29 03:06:12;;;;;;;2.03;1.53;;;9.20;99.90;;;;;;5077457;28;20936;-65
2023/12/29 03:08:38;;;;;;;1.70;1.37;;;9.20;99.90;;;;;;5077645;28;20491;-64
2023/12/29 03:11:05;;;;;;;2.70;1.43;;;9.20;99.90;;;;;;5077547;28;20473;-63
2023/12/29 03:13:32;;;;;;;2.80;1.37;;;9.20;99.90;;;;;;5077341;28;20663;-64
2023/12/29 03:16:01;;;;;;;2.40;1.30;;;9.10;99.90;;;;;;5077262;28;20463;-66
2023/12/29 03:18:28;;;;;;;2.50;1.97;;;9.10;99.90;;;;;;5077533;28;20804;-63
2023/12/29 03:20:55;;;;;;;2.43;1.87;;;9.20;99.90;;;;;;5080853;28;20985;-64
2023/12/29 03:23:21;;;;;;;3.43;1.30;;;9.20;99.90;;;;;;5097101;28;20454;-65
2023/12/29 03:25:48;;;;;;;2.10;1.50;;;9.20;99.90;;;;;;5098570;28;20445;-65
2023/12/29 03:28:15;;;;;;;2.27;1.40;;;9.20;99.90;;;;;;5097767;28;20470;-64
2023/12/29 03:30:42;;;;;;;2.90;1.53;;;9.20;99.90;;;;;;5098085;28;20433;-64
2023/12/29 03:33:10;;;;;;;1.63;1.53;;;9.20;99.90;;;;;;5097858;28;20470;-65
2023/12/29 03:35:37;;;;;;;1.97;1.30;;;9.10;99.90;;;;;;5095248;28;20441;-65
2023/12/29 03:38:04;;;;;;;1.53;1.30;;;9.20;99.90;;;;;;5095184;28;20445;-63
2023/12/29 03:40:33;;;;;;;1.60;1.50;;;9.20;99.90;;;;;;5095101;28;20494;-64
2023/12/29 03:43:02;;;;;;;4.90;1.40;;;9.20;99.90;;;;;;5088120;28;20485;-64
2023/12/29 03:45:30;;;;;;;2.53;1.40;;;9.20;99.90;;;;;;5085417;28;20736;-63
2023/12/29 03:47:57;;;;;;;1.60;1.40;;;9.30;99.90;;;;;;5085230;28;20473;-64
2023/12/29 03:50:25;;;;;;;3.47;1.20;;;9.30;99.90;;;;;;5080768;28;20538;-64
2023/12/29 03:52:52;;;;;;;1.70;1.17;;;9.30;99.90;;;;;;5079563;28;20477;-65
2023/12/29 03:55:19;;;;;;;2.10;1.27;;;9.30;99.90;;;;;;5078703;28;20503;-64
2023/12/29 03:57:46;;;;;;;2.20;1.20;;;9.30;99.90;;;;;;5078643;28;20434;-64
2023/12/29 04:00:16;;;;;;;1.83;1.50;;;9.30;99.90;;;;;;5076420;28;20529;-64
2023/12/29 04:02:43;;;;;;;4.73;1.40;;;9.30;99.90;;;;;;5076077;28;20478;-64
2023/12/29 04:05:10;;;;;;;1.40;1.13;;;9.30;99.90;;;;;;5075969;28;20559;-65
2023/12/29 04:07:40;;;;;;;2.43;1.30;;;9.30;99.90;;;;;;5076627;28;20504;-64
2023/12/29 04:10:08;;;;;;;1.40;0.97;;;9.40;99.90;;;;;;5076293;28;20448;-66
2023/12/29 04:12:35;;;;;;;3.47;1.40;;;9.40;99.90;;;;;;5076487;28;20461;-64
2023/12/29 04:15:02;;;;;;;8.10;1.60;;;9.40;99.90;;;;;;5076436;28;20504;-63
2023/12/29 04:17:29;;;;;;;1.63;1.17;;;9.40;99.90;;;;;;5077217;28;20438;-65
2023/12/29 04:19:56;;;;;;;1.50;0.90;;;9.50;99.90;;;;;;5075816;28;20490;-65
2023/12/29 04:22:23;;;;;;;1.20;0.90;;;9.40;99.90;;;;;;5076381;28;20442;-65
2023/12/29 04:24:51;;;;;;;2.17;1.07;;;9.40;99.90;;;;;;5076224;28;20497;-64
2023/12/29 04:27:19;;;;;;;2.90;0.90;;;9.40;99.90;;;;;;5076109;28;20887;-65
2023/12/29 04:29:46;;;;;;;3.67;0.97;;;9.40;99.90;;;;;;5075952;28;20516;-65
2023/12/29 04:32:13;;;;;;;1.37;0.90;;;9.40;99.90;;;;;;5076104;28;20447;-64
2023/12/29 04:34:40;;;;;;;2.47;1.50;;;9.40;99.90;;;;;;5076325;28;20462;-66
2023/12/29 04:37:07;;;;;;;1.50;1.10;;;9.40;99.90;;;;;;5078032;28;20460;-65
2023/12/29 04:39:34;;;;;;;1.17;1.00;;;9.40;99.90;;;;;;5092277;28;20469;-64
2023/12/29 04:42:02;;;;;;;2.30;1.17;;;9.40;99.90;;;;;;5096198;28;20467;-64
2023/12/29 04:44:29;;;;;;;1.03;0.90;;;9.40;99.90;;;;;;5096284;28;20477;-65
2023/12/29 04:46:56;;;;;;;1.27;0.80;;;9.40;99.90;;;;;;5095931;28;20460;-64
2023/12/29 04:49:23;;;;;;;3.80;1.20;;;9.40;99.90;;;;;;5095613;28;20459;-65
2023/12/29 04:51:52;;;;;;;1.00;0.70;;;9.40;99.90;;;;;;5095609;28;20439;-64
2023/12/29 04:54:22;;;;;;;3.97;1.10;;;9.40;99.90;;;;;;5096191;28;20509;-64
2023/12/29 04:56:49;;;;;;;2.50;1.00;;;9.50;99.90;;;;;;5095547;28;20891;-65
2023/12/29 04:59:18;;;;;;;6.33;1.30;;;9.50;99.90;;;;;;5096039;28;20452;-63
2023/12/29 05:01:45;;;;;;;1.13;1.00;;;9.50;99.90;;;;;;5095312;28;20508;-64
2023/12/29 05:04:12;;;;;;;3.13;0.80;;;9.50;99.90;;;;;;5095906;28;20450;-64
2023/12/29 05:06:38;;;;;;;1.10;1.00;;;9.50;99.90;;;;;;5095588;28;20464;-63
2023/12/29 05:09:05;;;;;;;1.00;0.80;;;9.50;99.90;;;;;;5095826;28;20485;-65
2023/12/29 05:11:32;;;;;;;1.10;0.80;;;9.50;99.90;;;;;;5096601;28;20447;-64
2023/12/29 05:13:59;;;;;;;1.10;1.00;;;9.60;99.90;;;;;;5096266;28;20484;-65
2023/12/29 05:16:28;;;;;;;2.70;1.17;;;9.60;99.90;;;;;;5096600;28;20460;-65
2023/12/29 05:18:54;;;;;;;1.00;0.77;;;9.60;99.90;;;;;;5095104;28;20462;-64
2023/12/29 05:21:23;;;;;;;1.37;0.90;;;9.60;99.90;;;;;;5093927;28;20479;-64
2023/12/29 05:23:50;;;;;;;1.37;0.97;;;9.60;99.90;;;;;;5094398;28;20515;-64
2023/12/29 05:26:17;;;;;;;1.93;1.13;;;9.60;99.90;;;;;;5094725;28;20451;-65
2023/12/29 05:28:45;;;;;;;1.30;1.00;;;9.50;99.90;;;;;;5090182;28;20443;-64
2023/12/29 05:31:12;;;;;;;2.87;1.10;;;9.50;99.90;;;;;;5085821;28;20450;-65
2023/12/29 05:33:40;;;;;;;1.10;0.83;;;9.50;99.90;;;;;;5085969;28;20444;-65
2023/12/29 05:36:09;;;;;;;1.17;0.70;;;9.60;99.90;;;;;;5080848;28;20470;-65
2023/12/29 05:38:36;;;;;;;2.70;0.87;;;9.60;99.90;;;;;;5078759;28;20463;-65
2023/12/29 05:41:04;;;;;;;1.40;0.80;;;9.60;99.90;;;;;;5077041;28;20522;-66
2023/12/29 05:43:32;;;;;;;1.40;0.93;;;9.60;99.90;;;;;;5076983;28;20519;-64
2023/12/29 05:45:59;;;;;;;1.00;0.90;;;9.70;99.90;;;;;;5076982;28;20458;-66
2023/12/29 05:48:26;;;;;;;1.93;1.10;;;9.70;99.90;;;;;;5076476;28;20442;-66
2023/12/29 05:50:54;;;;;;;1.30;0.80;;;9.70;99.90;;;;;;5075756;28;20526;-65
2023/12/29 05:53:21;;;;;;;1.77;1.10;;;9.80;99.90;;;;;;5074785;28;20442;-65
2023/12/29 05:55:48;;;;;;;1.00;0.73;;;9.80;99.90;;;;;;5074664;28;20480;-65
2023/12/29 05:58:15;;;;;;;2.17;0.80;;;9.80;99.90;;;;;;5075472;28;20442;-66
2023/12/29 06:00:44;;;;;;;1.63;1.00;;;9.80;99.90;;;;;;5076671;28;20496;-66
2023/12/29 06:03:11;;;;;;;1.30;1.00;;;9.80;99.90;;;;;;5076901;28;20446;-65
2023/12/29 06:05:38;;;;;;;1.77;1.00;;;9.80;99.90;;;;;;5076659;28;20542;-64
2023/12/29 06:08:07;;;;;;;1.73;0.80;;;9.80;99.90;;;;;;5076374;28;20444;-64
2023/12/29 06:10:35;;;;;;;1.70;1.10;;;9.80;99.90;;;;;;5075900;28;20466;-64
2023/12/29 06:13:03;;;;;;;1.47;1.00;;;9.80;99.90;;;;;;5074975;28;20446;-64
2023/12/29 06:15:30;;;;;;;1.33;0.90;;;9.80;99.90;;;;;;5074578;28;20508;-64
2023/12/29 06:17:57;;;;;;;2.00;1.10;;;9.80;99.90;;;;;;5074782;28;20891;-64
2023/12/29 06:20:24;;;;;;;2.20;1.40;;;9.80;99.90;;;;;;5074346;28;20937;-64
2023/12/29 06:22:51;;;;;;;1.80;0.90;;;9.80;99.90;;;;;;5076385;28;20494;-65
2023/12/29 06:25:23;;;;;;;1.40;1.07;;;9.80;99.90;;;;;;5076111;28;20443;-65
2023/12/29 06:27:50;;;;;;;1.30;1.00;;;9.90;99.90;;;;;;5079991;28;20443;-66
2023/12/29 06:30:17;;;;;;;1.20;1.00;;;9.90;99.90;;;;;;5080449;28;20442;-65
2023/12/29 06:32:44;;;;;;;3.80;1.20;;;9.90;99.90;;;;;;5080773;28;20428;-65
2023/12/29 06:35:11;;;;;;;1.30;0.90;;;9.90;99.90;;;;;;5080656;28;20941;-66
2023/12/29 06:37:40;;;;;;;1.40;0.90;;;9.90;99.90;;;;;;5080287;28;20458;-65
2023/12/29 06:40:08;;;;;;;1.83;1.00;;;9.90;99.90;;;;;;5078046;28;20902;-63
2023/12/29 06:42:36;;;;;;;3.10;1.00;;;9.90;99.90;;;;;;5077946;28;20956;-65
2023/12/29 06:45:04;;;;;;;8.00;1.27;;;10.00;99.90;;;;;;5078383;28;20985;-64
2023/12/29 06:47:31;;;;;;;1.70;0.90;;;10.00;99.90;;;;;;5078118;28;20599;-65
2023/12/29 06:49:58;;;;;;;1.13;0.83;;;10.00;99.90;;;;;;5077985;28;20468;-65
2023/12/29 06:52:26;;;;;;;2.27;1.00;;;10.00;99.90;;;;;;5077821;28;20815;-64
2023/12/29 06:54:53;;;;;;;1.50;1.00;;;10.00;99.90;;;;;;5077822;28;20496;-65
2023/12/29 06:57:20;;;;;;;3.77;1.37;;;10.00;99.90;;;;;;5077716;28;20464;-65
2023/12/29 06:59:48;;;;;;;3.60;1.30;;;10.00;99.90;;;;;;5077767;28;20477;-64
2023/12/29 07:02:15;;;;;;;2.27;1.20;;;10.00;99.90;;;;;;5078787;28;20966;-64
2023/12/29 07:04:45;;;;;;;3.57;1.10;;;10.00;99.90;;;;;;5080164;28;20459;-63
2023/12/29 07:07:12;;;;;;;4.20;1.43;;;10.00;99.90;;;;;;5079777;28;20966;-65
2023/12/29 07:09:40;;;;;;;1.47;1.00;;;10.00;99.90;;;;;;5079815;28;20446;-67
2023/12/29 07:12:08;;;;;;;2.30;1.03;;;10.10;99.90;;;;;;5080807;28;20509;-64
2023/12/29 07:14:35;;;;;;;2.40;1.10;;;10.00;99.90;;;;;;5081626;28;20516;-66
2023/12/29 07:17:04;;;;;;;2.63;1.10;;;10.00;99.90;;;;;;5081532;28;20464;-62
2023/12/29 07:19:36;;;;;;;1.70;1.03;;;10.00;99.90;;;;;;5083020;28;20449;-65
2023/12/29 07:22:04;;;;;;;2.27;1.40;;;10.10;99.90;;;;;;5085927;28;20490;-65
2023/12/29 07:24:32;;;;;;;1.80;1.47;;;10.10;99.90;;;;;;5085775;28;20490;-65
2023/12/29 07:26:59;;;;;;;1.83;1.50;;;10.20;99.90;;;;;;5094813;28;20472;-64
2023/12/29 07:29:26;;;;;;;1.37;1.07;;;10.20;99.90;;;;;;5095852;28;20474;-64
2023/12/29 07:31:53;;;;;;;3.13;1.60;;;10.20;99.90;;;;;;5091955;28;20472;-62
2023/12/29 07:34:21;;;;;;;3.17;1.90;;;10.20;99.90;;;;;;5085956;28;20954;-65
2023/12/29 07:36:48;;;;;;;2.43;1.40;;;10.10;99.90;;;;;;5086883;28;20466;-65
2023/12/29 07:39:15;;;;;;;3.37;1.80;;;10.10;99.90;;;;;;5086919;28;20540;-65
2023/12/29 07:41:43;;;;;;;1.77;1.37;;;10.10;99.90;;;;;;5086912;28;20558;-64
2023/12/29 07:44:12;;;;;;;3.27;1.43;;;10.10;99.90;;;;;;5087545;28;20433;-66
2023/12/29 07:46:39;;;;;;;4.83;1.53;;;10.10;99.90;;;;;;5086745;28;20557;-66
2023/12/29 07:49:06;;;;;;;4.87;1.20;;;10.10;99.90;;;;;;5086142;28;20501;-64
2023/12/29 07:51:35;;;;;;;6.57;1.47;;;10.10;99.90;;;;;;5085604;28;20812;-65
2023/12/29 07:54:02;;;;;;;2.47;1.83;;;10.10;99.90;;;;;;5081313;28;20429;-65
2023/12/29 07:56:31;;;;;;;3.60;1.40;;;10.10;99.90;;;;;;5081193;28;20477;-65
2023/12/29 07:58:58;;;;;;;2.00;1.10;;;10.10;99.90;;;;;;5081518;28;20461;-65
2023/12/29 08:01:25;;;;;;;6.23;1.20;;;10.10;99.90;;;;;;5080802;28;20509;-65
2023/12/29 08:03:52;;;;;;;1.83;1.23;;;10.10;99.90;;;;;;5081054;28;20474;-65
2023/12/29 08:06:19;;;;;;;2.73;1.20;;;10.10;99.90;;;;;;5079573;28;20825;-65
2023/12/29 08:08:47;;;;;;;2.00;1.17;;;10.10;99.90;;;;;;5078816;28;20987;-65
2023/12/29 08:11:15;;;;;;;1.70;1.10;;;10.20;99.90;;;;;;5078259;28;20485;-65
2023/12/29 08:13:44;;;;;;;8.03;1.27;;;10.20;99.90;;;;;;5076518;28;20473;-65
2023/12/29 08:16:11;;;;;;;2.43;1.07;;;10.20;99.90;;;;;;5076608;28;20482;-65
2023/12/29 08:18:38;;;;;;;3.40;1.40;;;10.30;99.90;;;;;;5076189;28;20477;-65
2023/12/29 08:21:05;;;;;;;1.60;1.23;;;10.30;99.90;;;;;;5076297;28;20567;-64
2023/12/29 08:23:32;;;;;;;2.13;0.97;;;10.30;99.90;;;;;;5076173;28;20549;-65
2023/12/29 08:26:03;;;;;;;2.70;1.10;;;10.40;99.90;;;;;;5076159;28;20819;-65
2023/12/29 08:28:30;;;;;;;1.40;1.00;;;10.40;99.90;;;;;;5076336;28;20971;-64
2023/12/29 08:30:57;;;;;;;2.50;1.43;;;10.50;99.90;;;;;;5075893;28;20531;-64
2023/12/29 08:33:24;;;;;;;1.40;1.00;;;10.50;99.90;;;;;;5075879;28;20443;-65
2023/12/29 08:35:50;;;;;;;8.00;2.40;;;10.50;99.90;;;;;;5075813;28;20550;-63
2023/12/29 08:38:17;;;;;;;2.77;1.20;;;10.60;99.90;;;;;;5076165;28;20491;-64
2023/12/29 08:40:44;;;;;;;8.83;1.50;;;10.60;99.90;;;;;;5075652;28;20457;-66
2023/12/29 08:43:13;;;;;;;1.83;1.07;;;10.60;99.90;;;;;;5075582;28;20865;-65
2023/12/29 08:45:41;;;;;;;1.87;1.40;;;10.60;99.90;;;;;;5076067;28;20821;-64
2023/12/29 08:48:08;;;;;;;1.90;1.37;;;10.60;99.90;;;;;;5075850;28;20467;-65
2023/12/29 08:50:35;;;;;;;1.30;0.90;;;10.60;99.90;;;;;;5075335;28;20516;-64
2023/12/29 08:53:02;;;;;;;3.87;1.40;;;10.70;99.90;;;;;;5077169;28;20458;-64
2023/12/29 08:55:29;;;;;;;5.80;1.13;;;10.60;99.90;;;;;;5077895;28;20444;-65
2023/12/29 08:57:56;;;;;;;3.10;1.37;;;10.60;99.90;;;;;;5077246;28;20508;-65
2023/12/29 09:00:24;;;;;;;2.73;1.40;;;10.60;99.90;;;;;;5077120;28;20540;-64
2023/12/29 09:02:51;;;;;;;3.53;1.40;;;10.60;99.90;;;;;;5076826;28;20524;-65
2023/12/29 09:05:18;;;;;;;8.33;3.00;;;10.60;99.90;;;;;;5076732;28;20450;-63
2023/12/29 09:07:45;;;;;;;2.67;1.80;;;10.50;99.90;;;;;;5077062;28;20462;-64
2023/12/29 09:10:12;;;;;;;1.30;0.97;;;10.50;99.90;;;;;;5077416;28;20441;-64
2023/12/29 09:12:40;;;;;;;5.33;1.40;;;10.60;99.90;;;;;;5077103;28;20490;-65
2023/12/29 09:15:07;;;;;;;4.20;1.43;;;10.60;99.90;;;;;;5077673;28;20766;-66
2023/12/29 09:17:36;;;;;;;4.93;1.10;;;10.70;99.90;;;;;;5077222;28;20449;-63
2023/12/29 09:20:03;;;;;;;5.63;1.67;;;10.70;99.90;;;;;;5077205;28;20427;-64
2023/12/29 09:22:29;;;;;;;3.63;1.77;;;10.90;99.90;;;;;;5078709;28;20485;-64
2023/12/29 09:24:56;;;;;;;2.30;1.23;;;10.90;99.90;;;;;;5079129;28;20550;-64
2023/12/29 09:27:23;;;;;;;1.43;1.30;;;11.10;99.90;;;;;;5078891;28;20478;-65
2023/12/29 09:29:51;;;;;;;2.47;1.70;;;11.10;99.90;;;;;;5079002;28;20452;-64
2023/12/29 09:32:18;;;;;;;1.83;1.10;;;11.20;99.90;;;;;;5079019;28;20458;-64
2023/12/29 09:34:46;;;;;;;5.33;1.70;;;11.20;99.90;;;;;;5079509;28;20492;-64
2023/12/29 09:37:13;;;;;;;3.00;1.70;;;11.20;99.90;;;;;;5079043;28;20510;-64
2023/12/29 09:39:40;;;;;;;1.80;1.40;;;11.30;99.90;;;;;;5078668;28;20503;-64
2023/12/29 09:42:12;;;;;;;1.50;1.23;;;11.20;99.90;;;;;;5078794;28;20580;-64
2023/12/29 09:44:39;;;;;;;1.40;0.90;;;11.30;99.90;;;;;;5078761;28;20980;-64
2023/12/29 09:47:09;;;;;;;1.40;1.30;;;11.30;99.90;;;;;;5078497;28;20969;-65
2023/12/29 09:49:39;;;;;;;3.93;1.20;;;11.30;99.90;;;;;;5078508;28;20515;-63
2023/12/29 09:52:10;;;;;;;5.33;1.80;;;11.30;99.90;;;;;;5078590;28;20438;-64
2023/12/29 09:54:38;;;;;;;1.80;1.30;;;11.30;99.90;;;;;;5078185;28;20532;-65
2023/12/29 09:57:06;;;;;;;2.90;1.40;;;11.30;99.90;;;;;;5078758;28;20524;-64
2023/12/29 09:59:36;;;;;;;7.07;1.50;;;11.30;99.90;;;;;;5078726;28;20469;-65
2023/12/29 10:02:05;;;;;;;1.40;1.03;;;11.20;99.90;;;;;;5080916;28;20480;-65
2023/12/29 10:04:32;;;;;;;2.60;1.27;;;11.20;99.90;;;;;;5082449;28;20556;-65
2023/12/29 10:07:04;;;;;;;2.63;1.27;;;11.30;99.90;;;;;;5082600;28;20450;-65
2023/12/29 10:09:34;;;;;;;2.27;1.20;;;11.30;99.90;;;;;;5082785;28;20795;-65
2023/12/29 10:12:03;;;;;;;4.30;1.43;;;11.30;99.90;;;;;;5081725;28;20485;-64
2023/12/29 10:14:38;;;;;;;2.10;1.13;;;11.30;99.90;;;;;;5080453;28;20464;-64
2023/12/29 10:17:10;;;;;;;2.27;1.43;;;11.30;99.90;;;;;;5080484;28;20423;-64
2023/12/29 10:19:41;;;;;;;3.13;1.30;;;11.40;99.90;;;;;;5079521;28;20469;-63
2023/12/29 10:22:12;;;;;;;1.70;1.20;;;11.60;99.90;;;;;;5078879;28;20477;-64
2023/12/29 10:24:42;;;;;;;2.00;1.37;;;11.70;99.90;;;;;;5078569;28;20968;-64
2023/12/29 10:27:09;;;;;;;9.43;1.20;;;11.90;99.90;;;;;;5078280;28;20453;-64
2023/12/29 10:29:37;;;;;;;4.90;1.87;;;11.90;99.90;;;;;;5078042;28;20477;-63
2023/12/29 10:32:05;;;;;;;2.03;1.33;;;11.90;99.90;;;;;;5078380;28;20445;-63
2023/12/29 10:34:32;;;;;;;3.63;1.43;;;11.90;99.90;;;;;;5078395;28;20777;-63
2023/12/29 10:37:01;;;;;;;2.67;1.40;;;11.90;99.90;;;;;;5078321;28;20450;-63
2023/12/29 10:39:28;;;;;;;1.97;1.30;;;11.90;99.90;;;;;;5078174;28;20470;-64
2023/12/29 10:42:06;;;;;;;1.40;1.07;;;11.90;99.90;;;;;;5078102;28;20481;-64
2023/12/29 10:44:37;;;;;;;2.70;1.67;;;11.90;99.90;;;;;;5077837;28;20472;-64
2023/12/29 10:47:10;;;;;;;3.30;2.40;;;11.90;99.90;;;;;;5078119;28;20442;-64
2023/12/29 10:49:37;;;;;;;3.87;1.00;;;11.80;99.90;;;;;;5077822;28;20560;-64
2023/12/29 10:52:12;;;;;;;3.63;1.33;;;11.80;99.90;;;;;;5077735;28;20513;-65
2023/12/29 10:54:39;;;;;;;3.53;1.53;;;11.80;99.90;;;;;;5077735;28;20497;-64
2023/12/29 10:57:11;;;;;;;4.67;2.10;;;11.80;99.90;;;;;;5077796;28;20450;-66
2023/12/29 10:59:38;;;;;;;6.17;1.90;;;11.80;99.90;;;;;;5077796;28;20483;-64
2023/12/29 11:02:05;;;;;;;2.50;1.33;;;11.80;99.90;;;;;;5077493;28;20517;-66
2023/12/29 11:04:32;;;;;;;3.33;1.10;;;11.90;99.90;;;;;;5077596;28;20840;-64
2023/12/29 11:06:59;;;;;;;1.47;1.23;;;11.90;99.90;;;;;;5077438;28;20491;-65
2023/12/29 11:09:29;;;;;;;4.13;1.30;;;11.90;99.90;;;;;;5077650;28;20542;-64
2023/12/29 11:11:58;;;;;;;8.33;1.93;;;11.90;99.90;;;;;;5077356;28;20855;-64
2023/12/29 11:14:28;;;;;;;1.97;1.27;;;11.80;99.90;;;;;;5077295;28;20470;-65
2023/12/29 11:16:57;;;;;;;4.60;1.20;;;11.90;99.90;;;;;;5077481;28;20533;-65
2023/12/29 11:19:24;;;;;;;2.93;1.60;;;11.90;99.90;;;;;;5077584;28;20545;-64
2023/12/29 11:21:55;;;;;;;10.00;2.43;;;11.90;99.90;;;;;;5077270;28;20554;-64
2023/12/29 11:24:22;;;;;;;3.27;1.77;;;11.90;99.90;;;;;;5077419;28;20459;-66
2023/12/29 11:26:50;;;;;;;1.20;1.07;;;11.90;99.90;;;;;;5077447;28;20541;-64
2023/12/29 11:29:18;;;;;;;2.30;1.63;;;11.90;99.90;;;;;;5077516;28;20480;-64
2023/12/29 11:31:49;;;;;;;2.00;1.30;;;11.90;99.90;;;;;;5077347;28;20508;-63
2023/12/29 11:34:24;;;;;;;17.23;1.50;;;11.90;99.90;;;;;;5076945;28;20431;-64
2023/12/29 11:36:58;;;;;;;6.93;1.10;;;11.90;99.90;;;;;;5077236;28;20450;-64
2023/12/29 11:39:31;;;;;;;4.43;1.30;;;11.90;99.90;;;;;;5077147;28;20829;-64
2023/12/29 11:42:03;;;;;;;1.90;1.30;;;11.90;99.90;;;;;;5077152;28;20465;-68
2023/12/29 11:44:30;;;;;;;4.07;1.20;;;11.90;99.90;;;;;;5076839;28;20437;-65
2023/12/29 11:46:59;;;;;;;2.73;1.13;;;11.90;99.90;;;;;;5077129;28;20435;-65
2023/12/29 11:49:27;;;;;;;2.47;1.63;;;11.90;99.90;;;;;;5076909;28;20487;-65
2023/12/29 11:51:53;;;;;;;2.83;1.03;;;11.80;99.90;;;;;;5076884;28;20490;-67
2023/12/29 11:54:25;;;;;;;3.20;1.50;;;11.80;99.90;;;;;;5076939;28;21005;-68
2023/12/29 11:56:52;;;;;;;1.70;1.10;;;11.80;99.90;;;;;;5076830;28;20945;-65
2023/12/29 11:59:20;;;;;;;1.47;1.23;;;11.90;99.90;;;;;;5076976;28;20476;-64
2023/12/29 12:01:51;;;;;;;3.20;1.33;;;11.90;99.90;;;;;;5076352;28;20455;-64
2023/12/29 12:04:40;;;;;;;8.70;2.20;;;11.90;99.90;;;;;;5076545;28;20466;-64
2023/12/29 12:07:08;;;;;;;2.90;1.50;;;11.90;99.90;;;;;;5076786;28;20494;-65
2023/12/29 12:09:34;;;;;;;2.50;1.23;;;11.80;99.90;;;;;;5076499;28;20460;-64
2023/12/29 12:12:03;;;;;;;3.57;1.53;;;11.80;99.90;;;;;;5076479;28;20499;-66
2023/12/29 12:14:52;;;;;;;2.77;1.30;;;11.80;99.90;;;;;;5076566;28;20526;-65
2023/12/29 12:17:36;;;;;;;4.43;1.50;;;11.80;99.90;;;;;;5076394;28;20520;-64
2023/12/29 12:20:09;;;;;;;3.40;1.67;;;11.80;99.90;;;;;;5076365;28;20506;-65
2023/12/29 12:22:37;;;;;;;6.93;1.80;;;11.80;99.90;;;;;;5076324;28;20557;-64
2023/12/29 12:25:05;;;;;;;2.80;1.67;;;11.80;99.90;;;;;;5075369;28;20439;-65
2023/12/29 12:27:32;;;;;;;1.70;1.10;;;11.70;99.90;;;;;;5076733;28;20572;-65
2023/12/29 12:30:00;;;;;;;3.00;1.60;;;11.70;99.90;;;;;;5081136;28;20473;-64
2023/12/29 12:32:28;;;;;;;2.10;1.20;;;11.60;99.90;;;;;;5081331;28;20466;-62
2023/12/29 12:34:55;;;;;;;2.43;1.10;;;11.60;99.90;;;;;;5081091;28;20468;-63
2023/12/29 12:37:25;;;;;;;2.13;1.40;;;11.50;99.90;;;;;;5078673;28;20504;-63
2023/12/29 12:39:52;;;;;;;2.70;1.57;;;11.50;99.90;;;;;;5084321;28;20461;-65
2023/12/29 12:42:20;;;;;;;4.90;1.70;;;11.50;99.90;;;;;;5083036;28;20478;-64
2023/12/29 12:44:55;;;;;;;3.33;1.47;;;11.40;99.90;;;;;;5079645;28;20485;-65
2023/12/29 12:47:28;;;;;;;2.50;1.30;;;11.40;99.90;;;;;;5077227;28;20484;-65
2023/12/29 12:49:55;;;;;;;1.80;1.30;;;11.40;99.90;;;;;;5078135;28;20443;-64
2023/12/29 12:52:23;;;;;;;4.50;1.30;;;11.30;99.90;;;;;;5079216;28;20438;-65
2023/12/29 12:54:50;;;;;;;1.50;1.30;;;11.30;99.90;;;;;;5078385;28;20451;-64
2023/12/29 12:57:21;;;;;;;2.70;1.50;;;11.30;99.90;;;;;;5078260;28;20478;-64